Main page
Satellite images 15-day forecastsClimateMarine weather Cyclones Lightning AirportsFAQ Newsletter About
Weather : Europe Africa North America South America Asia Australia-Oceania Others
Languages Contact

Ciudad Del Este, Paraguay

Guarani

latitude: 25-27-20S, longitude: 054-50-37W, elevation: 257 m


METAR: SGES 241130Z 06006KT CAVOK 26/22 Q1011
TAF: SGES 240943Z 2412/2512 15004KT CAVOK TX33/2419Z TN22/2510Z BECMG 2415/2419 03012KT 9999 BKN027

Time: 09:03 (12:03 UTC)

Current weather observation

The report was made 33 minutes ago, at 11:30 UTC
Wind 6 kt from the East/Northeast
Temperature 26°C
Humidity 79%
Pressure 1011 hPa
Visibility 10 km or more
no clouds below 1500 m and no cumulonimbus

Change units

Forecast

The report was made 2 hours and 20 minutes ago, at 09:43 UTC
Forecast valid from 24 at 12 UTC to 25 at 12 UTC
Wind 4 kt from the South/Southeast
Visibility 10 km or more
no clouds below 1500 m and no cumulonimbus
Becoming
from 24 at 15 UTC to 24 at 19 UTC
Wind 12 kt from the North/Northeast
Visibility 10 km or more
Broken clouds at a height of 2700 ft
The information on this site is subject to a disclaimer
Weather : Europe Africa North America South America Asia Australia-Oceania Others
Satellite images 15-day forecastsClimateMarine weather Cyclones Lightning AirportsFAQ Languages Contact Newsletter About